Time;durP1;ratioP1;P1;durP2;ratioP2;P2;SDS_P1;SDS_P2;PMS_P1;PMS_P2;Temp;Humidity;BMP_temperature;BMP_pressure;BME280_temperature;BME280_humidity;BME280_pressure;Samples;Min_cycle;Max_cycle;Signal;HPM_P1;HPM_P2
2022/08/01 08:27:03;;;;;;;13.50;3.03;;;;;;;24.23;41.46;99870.56;6151994;23;20113;-91
2022/08/01 10:12:40;;;;;;;27.75;3.47;;;;;;;25.35;34.19;99768.94;6188923;23;20020;-91
2022/08/01 10:15:12;;;;;;;15.45;3.67;;;;;;;25.20;34.98;99764.56;6145228;23;20502;-89
2022/08/01 10:22:54;;;;;;;15.40;3.15;;;;;;;25.04;33.66;99737.78;6067044;23;20118;-89
2022/08/01 10:29:02;;;;;;;30.98;4.10;;;;;;;25.37;36.03;99811.34;6201190;23;20023;-89
2022/08/01 10:54:06;;;;;;;17.40;4.22;;;;;;;26.06;34.57;99773.59;6178582;23;20205;-88
2022/08/01 10:56:48;;;;;;;7.33;2.73;;;;;;;26.28;33.49;99788.28;6116771;23;20024;-89
2022/08/01 10:59:30;;;;;;;6.88;2.70;;;;;;;26.30;33.41;99794.28;6171479;23;20076;-89
2022/08/01 11:07:05;;;;;;;10.68;2.97;;;;;;;25.80;32.81;99785.25;6162101;23;20068;-89
2022/08/01 11:10:16;;;;;;;9.63;3.05;;;;;;;25.80;33.85;99780.47;6161579;23;20017;-91
2022/08/01 11:12:43;;;;;;;57.90;4.38;;;;;;;25.84;34.96;99756.06;6162287;23;20073;-94
2022/08/01 11:15:31;;;;;;;4.50;2.70;;;;;;;26.20;33.52;99775.53;6157525;23;20021;-92
2022/08/01 11:18:00;;;;;;;22.85;4.20;;;;;;;26.15;35.09;99781.53;6129359;23;20028;-93
2022/08/01 11:20:34;;;;;;;11.02;3.10;;;;;;;26.17;34.21;99773.53;6129411;23;20041;-92
2022/08/01 11:26:38;;;;;;;27.42;4.00;;;;;;;26.02;33.57;99728.75;6096466;23;20030;-93
2022/08/01 11:29:13;;;;;;;25.20;4.15;;;;;;;26.33;34.19;99757.03;6097429;23;20025;-92
2022/08/01 11:31:40;;;;;;;9.30;3.13;;;;;;;26.57;34.20;99765.72;6047412;23;20033;-91
2022/08/01 11:34:07;;;;;;;10.73;3.25;;;;;;;26.73;35.56;99766.00;6046134;23;20086;-92
2022/08/01 11:36:33;;;;;;;12.55;3.00;;;;;;;26.85;32.68;99773.13;6023073;23;20069;-89
2022/08/01 11:39:01;;;;;;;5.85;2.78;;;;;;;26.80;33.66;99748.31;6045451;23;20019;-92
2022/08/01 11:41:35;;;;;;;8.68;3.10;;;;;;;26.96;32.84;99762.63;6045071;23;20018;-90
2022/08/01 11:44:06;;;;;;;9.05;2.75;;;;;;;27.08;33.46;99762.09;6044618;23;20022;-90
2022/08/01 11:47:02;;;;;;;22.33;3.17;;;;;;;27.14;33.55;99760.47;6093249;23;20017;-90
2022/08/01 11:49:45;;;;;;;17.35;3.45;;;;;;;27.23;34.12;99743.16;6044770;23;20027;-89
2022/08/01 11:52:23;;;;;;;3.17;2.55;;;;;;;27.32;29.14;99756.72;6046271;23;20018;-89
2022/08/01 11:55:09;;;;;;;5.30;3.30;;;;;;;27.36;32.13;99751.88;6070145;23;20117;-90
2022/08/01 11:57:39;;;;;;;16.17;3.97;;;;;;;27.47;32.22;99746.13;6082328;23;20079;-89
2022/08/01 12:00:17;;;;;;;9.95;2.92;;;;;;;27.56;32.29;99752.84;6081630;23;20013;-90
2022/08/01 12:02:45;;;;;;;36.30;4.57;;;;;;;27.51;30.71;99741.25;6082085;23;20053;-89
2022/08/01 12:05:20;;;;;;;6.90;2.70;;;;;;;27.35;30.66;99720.19;6081724;23;20052;-90
2022/08/01 12:07:51;;;;;;;17.38;3.15;;;;;;;27.55;32.06;99742.84;6129548;23;20547;-91
2022/08/01 12:10:20;;;;;;;7.65;3.15;;;;;;;27.67;32.89;99738.69;6081837;23;20108;-89
2022/08/01 12:12:55;;;;;;;25.52;3.72;;;;;;;27.78;32.51;99742.22;6106286;23;20332;-90
2022/08/01 12:15:37;;;;;;;7.45;3.20;;;;;;;27.69;31.36;99704.56;6083743;23;20023;-89
2022/08/01 12:18:06;;;;;;;7.05;2.63;;;;;;;27.82;29.78;99719.69;6100903;23;20026;-91
2022/08/01 12:24:27;;;;;;;24.27;3.80;;;;;;;27.94;29.96;99726.75;6163283;23;20452;-89
2022/08/01 12:31:58;;;;;;;18.02;3.50;;;;;;;27.91;29.80;99733.19;6167320;23;20018;-90
2022/08/01 12:34:50;;;;;;;16.48;4.15;;;;;;;28.05;31.57;99733.81;6130535;23;20021;-90
2022/08/01 12:37:28;;;;;;;11.35;3.25;;;;;;;28.13;31.41;99734.53;6155631;23;20021;-89
2022/08/01 12:43:45;;;;;;;39.50;4.70;;;;;;;28.14;29.89;99710.81;6094519;23;20038;-91
2022/08/01 12:46:15;;;;;;;67.10;7.47;;;;;;;28.32;31.84;99724.63;6099223;23;20017;-91
2022/08/01 12:48:42;;;;;;;42.78;5.35;;;;;;;28.30;31.03;99727.84;6125565;23;20049;-90
2022/08/01 12:51:09;;;;;;;48.00;4.95;;;;;;;28.30;31.49;99722.22;6080904;23;20025;-90
2022/08/01 12:53:35;;;;;;;31.02;4.75;;;;;;;28.28;32.69;99724.69;6080690;23;20041;-91
2022/08/01 12:56:01;;;;;;;32.10;4.25;;;;;;;28.27;28.88;99728.69;6080783;23;20452;-91
2022/08/01 12:58:31;;;;;;;;;;;;;;;28.36;31.79;99718.94;6081323;23;20025;-89
2022/08/01 13:01:28;;;;;;;32.33;3.83;;;;;;;28.42;30.71;99711.66;6080955;23;19966;-91
2022/08/01 13:04:04;;;;;;;20.33;3.65;;;;;;;28.32;30.70;99716.97;6077617;23;20044;-91
2022/08/01 13:06:30;;;;;;;32.45;4.35;;;;;;;28.44;31.74;99717.63;6080983;23;20113;-90
2022/08/01 13:09:08;;;;;;;;;;;;;;;28.50;31.58;99713.91;6081608;23;20017;-90
2022/08/01 13:11:36;;;;;;;9.27;2.90;;;;;;;28.40;31.01;99720.50;6128824;23;20063;-90
2022/08/01 13:14:02;;;;;;;7.38;3.10;;;;;;;28.43;29.77;99710.44;6104436;23;20104;-89
2022/08/01 13:16:29;;;;;;;;;;;;;;;28.36;29.88;99710.50;6081155;23;20025;-90
2022/08/01 13:18:58;;;;;;;18.02;3.42;;;;;;;28.37;29.80;99703.66;6155120;23;19923;-89
2022/08/01 13:21:30;;;;;;;9.10;3.03;;;;;;;28.26;29.49;99692.56;6104364;23;20021;-89
2022/08/01 13:24:07;;;;;;;13.27;3.13;;;;;;;28.46;31.77;99703.97;6080987;23;20017;-89
2022/08/01 13:26:51;;;;;;;46.42;6.15;;;;;;;28.66;30.94;99706.84;6155711;23;20021;-90
2022/08/01 13:29:28;;;;;;;27.27;3.80;;;;;;;28.62;29.94;99698.47;6080343;23;20474;-89
2022/08/01 13:31:55;;;;;;;26.10;4.32;;;;;;;28.66;30.12;99696.41;6080955;23;20020;-90
2022/08/01 13:34:35;;;;;;;18.23;3.30;;;;;;;28.71;30.24;99709.16;6080845;23;20024;-90
2022/08/01 13:37:01;;;;;;;15.98;3.55;;;;;;;28.72;29.77;99702.34;6080912;23;20045;-90
2022/08/01 13:39:41;;;;;;;15.82;3.25;;;;;;;28.72;30.53;99705.94;6081016;23;20108;-91
2022/08/01 13:42:09;;;;;;;16.65;3.10;;;;;;;28.61;28.22;99701.69;6081799;23;20025;-88
2022/08/01 13:44:35;;;;;;;9.68;2.97;;;;;;;28.63;29.30;99705.69;6081848;23;20057;-92
2022/08/01 13:47:04;;;;;;;6.32;2.80;;;;;;;28.41;30.17;99704.41;6084144;23;20061;-92
2022/08/01 13:49:31;;;;;;;8.25;3.35;;;;;;;28.23;32.02;99711.09;6082512;23;20018;-88
2022/08/01 13:55:53;;;;;;;3.88;2.75;;;;;;;27.92;29.03;99681.44;6065506;23;20117;-88
2022/08/01 14:53:18;;;;;;;30.67;7.60;;;;;;;26.34;33.59;99623.28;6153927;23;20011;-88
2022/08/01 16:34:56;;;;;;;15.20;6.68;;;;;;;24.09;41.04;99675.78;6153802;23;20044;-88
2022/08/01 16:37:25;;;;;;;28.92;6.50;;;;;;;24.03;39.56;99687.75;6127729;23;20025;-88
2022/08/01 17:28:30;;;;;;;36.83;6.63;;;;;;;22.42;43.73;99681.97;6184085;23;20013;-88
2022/08/01 17:30:58;;;;;;;30.95;6.40;;;;;;;22.42;45.22;99689.53;6098867;23;20081;-88
2022/08/01 17:33:25;;;;;;;42.70;6.55;;;;;;;22.32;43.47;99691.03;6075563;23;20404;-86
2022/08/01 17:35:51;;;;;;;22.10;5.60;;;;;;;22.31;43.69;99699.75;6051791;23;20077;-91
2022/08/01 17:38:19;;;;;;;32.47;5.43;;;;;;;22.14;45.15;99684.44;6075726;23;20049;-90
2022/08/01 17:40:45;;;;;;;30.67;5.45;;;;;;;22.13;44.95;99700.34;6051876;23;20022;-89
2022/08/01 17:43:12;;;;;;;21.77;4.90;;;;;;;22.02;45.02;99691.88;6105168;23;20082;-91
2022/08/01 17:45:42;;;;;;;33.58;5.20;;;;;;;22.00;46.07;99702.59;6059466;23;20018;-89
2022/08/01 18:31:40;;;;;;;22.67;4.45;;;;;;;21.06;47.79;99727.53;6157188;23;19928;-90
2022/08/01 18:34:06;;;;;;;14.60;4.03;;;;;;;21.04;47.42;99729.09;6099876;23;20018;-93
2022/08/01 18:36:33;;;;;;;20.48;5.00;;;;;;;21.03;48.19;99728.28;6053803;23;20120;-91
2022/08/01 18:39:07;;;;;;;14.60;4.68;;;;;;;20.95;48.65;99715.44;6055851;23;20401;-90
2022/08/01 22:09:54;;;;;;;31.80;8.07;;;;;;;18.89;54.40;99758.00;6187491;23;20042;-96
2022/08/01 22:12:45;;;;;;;29.50;7.55;;;;;;;18.83;54.87;99753.91;6086402;23;20017;-96
